Saanich, Canada
Current Conditions -  °F | °C
As of 9:00 PM on Sunday 21 Dec 2014 (Local Time) from CYWH Reporting Station
Overcast Overcast  
Wind Chill: 50°   Ceiling: 15000
Heat Index: 50°   Visibility: 15mi
Dew Point: 46°   Wind: 15mph
Humidity: 87%   Direction: 230°SW
Pressure: 30.04"   Gusts: NA
Location:  48.46°N, 123.38°W
Report Text: CYWH 220500Z 23013KT 15SM FEW060 OVC150 10/08 A3004 RMK SC2AC6LAST OBS/NEXT 221400 UTC SLP171
Loading
Personal Weather Stations






























Interactive Weather Map New forecast layout! Learn more

10-Day Weather Forecast

Advertisements
Track Severe Weather on mobile